Latest Weather Observations for Macquarie Island*

IDT60801

Issued at 1:01 pm EST Tuesday 28 July 2015 (issued every 30 minutes, with the page automatically refreshed every 10 minutes)

About weather observations | Map of weather stations | Latest weather observations for ANT | Other Formats
Station Details ID: 300004 Name: MACQUARIE ISLAND Lat: -54.50 Lon: 158.94 Height: 6.0 m
Data from the previous 72 hours. | See also: Recent months at Macquarie Island*
Date/Time
EST
Temp
°C
App
Temp
°C
Dew
Point
Rel
Hum
%
Delta-T
°C
Wind Press
QNH
hPa
Press
MSL
hPa
Rain
since 9 am
mm
Dir
 
Spd
km/h
Gust
km/h
Spd
kts
Gust
kts
28/01:00pm 2.1 -5.9 -2.2 73 1.5 WSW 30 48 16 26 998.4 - 0.2
28/12:30pm 2.1 -5.1 -1.9 75 1.4 WSW 26 44 14 24 997.7 - 0.2
28/12:00pm 2.4 -4.6 -0.7 80 1.1 SW 26 46 14 25 997.1 997.4 0.2
28/11:30am 2.1 -5.6 0.0 86 0.8 SW 30 52 16 28 996.7 - 0.2
28/11:00am 2.9 -4.2 1.3 89 0.6 WSW 28 48 15 26 996.2 - 0.2
28/10:30am 3.1 -3.9 1.9 92 0.5 WSW 28 50 15 27 995.7 - 0.2
28/10:04am 3.3 -4.0 2.3 93 0.4 WSW 30 48 16 26 995.2 - 0.2
28/10:03am 3.3 -4.4 2.3 93 0.4 WSW 32 48 17 26 995.2 - 0.2
28/10:01am 3.4 -5.2 2.5 94 0.4 W 37 56 20 30 995.1 - 0.2
28/10:00am 3.4 -5.6 2.5 94 0.4 W 39 56 21 30 995.1 - 0.2
28/09:30am 3.9 -5.0 3.3 96 0.2 W 39 52 21 28 994.7 - 0.0
28/09:29am 3.9 -4.6 3.3 96 0.2 W 37 52 20 28 994.6 - 0.0
28/09:00am 3.7 -4.4 3.1 96 0.2 NW 35 41 19 22 994.4 994.7 8.4
28/08:30am 3.5 -3.7 2.9 96 0.2 NW 30 39 16 21 994.3 - 8.4
28/08:00am 3.2 -5.4 2.6 96 0.2 NNW 37 43 20 23 994.2 - 8.4
28/07:30am 2.9 -4.8 2.2 95 0.3 NNW 32 41 17 22 994.7 - 8.4
28/07:00am 2.7 -5.7 1.5 92 0.5 NW 35 43 19 23 994.8 - 8.4
28/06:30am 2.6 -6.2 1.6 93 0.4 NW 37 43 20 23 995.1 - 8.2
28/06:00am 2.6 -6.2 1.3 91 0.5 WNW 37 43 20 23 995.2 995.5 8.0
28/05:30am 2.5 -6.0 1.0 90 0.6 WNW 35 41 19 22 995.4 - 7.6
28/05:00am 2.4 -5.8 0.5 87 0.7 WNW 33 39 18 21 995.7 - 7.6
28/04:30am 2.1 -6.0 -0.3 84 0.9 WNW 32 37 17 20 995.9 - 7.6
28/04:00am 1.7 -6.4 -0.5 85 0.8 WNW 32 35 17 19 995.9 - 7.6
28/03:30am 1.3 -5.8 -1.1 84 0.8 WNW 26 30 14 16 996.4 - 7.6
28/03:00am 1.0 -7.3 -1.6 83 0.9 WNW 32 37 17 20 996.4 996.7 7.6
28/02:30am 0.8 -8.1 -1.8 83 0.9 W 35 41 19 22 996.7 - 7.6
28/02:00am 0.6 -7.7 -1.8 84 0.9 W 32 39 17 21 996.8 - 7.6
28/01:30am 0.4 -7.6 -2.1 83 0.9 WSW 30 41 16 22 997.0 - 7.6
28/01:00am 0.1 -6.4 -2.1 85 0.8 WSW 22 35 12 19 996.8 - 7.6
28/12:31am 0.0 -9.6 -1.7 88 0.6 WSW 39 57 21 31 996.4 - 7.6
28/12:30am -0.1 -10.1 -1.8 88 0.6 WSW 41 57 22 31 996.4 - 7.6
28/12:01am 0.0 -9.6 -1.3 91 0.5 WSW 39 57 21 31 996.4 - 7.6
28/12:00am -0.1 -10.1 -1.4 91 0.5 WSW 41 57 22 31 996.4 996.7 7.6
 
Date/Time
EST
Temp
°C
App
Temp
°C
Dew
Point
Rel
Hum
%
Delta-T
°C
Wind Press
QNH
hPa
Press
MSL
hPa
Rain
since 9 am
mm
Dir
 
Spd
km/h
Gust
km/h
Spd
kts
Gust
kts
27/11:30pm 0.1 -9.0 -0.9 93 0.4 WSW 37 48 20 26 996.8 - 7.6
27/11:00pm 0.4 -9.1 -0.4 94 0.3 WSW 39 50 21 27 996.8 - 7.6
27/10:30pm 0.5 -8.6 -0.4 94 0.3 SW 37 50 20 27 997.0 - 7.6
27/10:00pm 0.9 -7.7 0.0 94 0.3 SW 35 50 19 27 996.8 - 7.6
27/09:30pm 1.4 -6.8 0.4 93 0.4 SW 33 46 18 25 996.7 - 7.6
27/09:00pm 1.6 -6.0 0.6 93 0.4 SW 30 43 16 23 996.7 997.0 7.6
27/08:30pm 2.1 -3.9 0.9 92 0.5 SW 22 35 12 19 996.8 - 7.6
27/08:00pm 2.5 -2.9 1.2 91 0.5 SW 19 26 10 14 996.7 - 7.6
27/07:30pm 3.1 -2.5 1.5 89 0.6 SW 20 28 11 15 996.6 - 7.6
27/07:00pm 3.3 -3.0 1.8 90 0.6 S 24 32 13 17 996.4 - 7.6
27/06:30pm 3.3 -2.9 2.0 91 0.5 S 24 33 13 18 996.2 - 7.6
27/06:00pm 3.2 -4.2 2.0 92 0.5 S 30 39 16 21 996.1 996.4 7.6
27/05:30pm 3.0 -4.9 2.1 94 0.4 S 33 41 18 22 995.8 - 7.6
27/05:00pm 3.1 -5.9 2.4 95 0.3 S 39 46 21 25 995.4 - 7.6
27/04:30pm 3.1 -5.9 2.2 94 0.4 S 39 46 21 25 995.2 - 7.4
27/04:00pm 3.1 -5.6 2.2 94 0.4 S 37 48 20 26 995.1 - 7.4
27/03:30pm 3.0 -6.5 2.0 93 0.4 S 41 52 22 28 995.3 - 7.2
27/03:00pm 3.0 -6.9 1.8 92 0.5 S 43 56 23 30 995.0 995.3 7.2
27/02:30pm 2.9 -6.6 1.9 93 0.4 S 41 50 22 27 994.7 - 7.2
27/02:00pm 3.1 -5.9 2.2 94 0.4 S 39 52 21 28 994.6 - 7.2
27/01:30pm 3.3 -6.1 2.4 94 0.4 SSE 41 48 22 26 994.4 - 7.2
27/01:00pm 3.3 -5.0 2.3 93 0.4 SSE 35 44 19 24 994.7 - 7.2
27/12:30pm 3.2 -5.9 2.0 92 0.5 SSE 39 46 21 25 994.7 - 6.8
27/12:00pm 3.1 -6.4 1.8 91 0.5 SSE 41 48 22 26 994.8 995.1 5.2
27/11:30am 2.9 -5.9 1.6 91 0.5 SSE 37 44 20 24 995.1 - 4.2
27/11:00am 3.2 -4.2 1.9 91 0.5 SE 30 37 16 20 995.3 - 2.8
27/10:30am 3.3 -3.7 2.1 92 0.5 SE 28 33 15 18 995.5 - 1.6
27/10:00am 3.7 -2.7 3.0 95 0.3 SSE 26 32 14 17 995.7 - 0.8
27/09:30am 3.7 -2.7 3.0 95 0.3 SE 26 30 14 16 995.6 - 0.4
27/09:00am 3.7 -2.4 2.8 94 0.4 SE 24 28 13 15 995.6 995.9 1.0
27/08:30am 3.7 -2.8 2.8 94 0.4 SE 26 32 14 17 995.7 - 0.6
27/08:00am 3.7 -2.8 2.7 93 0.4 SE 26 32 14 17 995.7 - 0.2
27/07:30am 3.7 -2.4 2.7 93 0.4 SE 24 30 13 16 995.8 - 0.2
27/07:00am 3.7 -2.4 2.7 93 0.4 SE 24 28 13 15 995.7 - 0.0
27/06:30am 3.7 -2.4 2.7 93 0.4 ESE 24 30 13 16 995.9 - 0.0
27/06:00am 3.7 -2.4 2.7 93 0.4 ESE 24 28 13 15 995.8 996.1 0.0
27/05:30am 3.6 -1.8 2.7 94 0.4 ESE 20 24 11 13 995.8 - 0.0
27/05:00am 3.6 -1.6 2.6 93 0.4 ESE 19 24 10 13 995.9 - 0.0
27/04:30am 3.6 -0.4 2.6 93 0.4 ESE 13 15 7 8 996.1 - 0.0
27/04:00am 3.5 -0.6 2.5 93 0.4 SSE 13 15 7 8 996.0 - 0.0
27/03:30am 3.6 -0.4 2.6 93 0.4 SE 13 15 7 8 996.2 - 0.0
27/03:00am 3.6 0.7 2.4 92 0.5 SE 7 13 4 7 996.4 996.7 0.0
27/02:30am 3.9 1.2 2.7 92 0.5 NNE 6 11 3 6 996.6 - 0.0
27/02:00am 3.8 -0.2 2.8 93 0.4 N 13 28 7 15 996.7 - 0.0
27/01:30am 3.0 1.0 2.1 94 0.4 WNW 2 7 1 4 996.8 - 0.0
27/01:00am 3.1 0.7 2.2 94 0.4 WNW 4 9 2 5 996.7 - 0.0
27/12:30am 3.2 -0.1 2.3 94 0.4 WNW 9 9 5 5 996.9 - 0.0
27/12:00am 3.2 0.2 2.3 94 0.4 NW 7 9 4 5 996.8 997.1 0.0
 
Date/Time
EST
Temp
°C
App
Temp
°C
Dew
Point
Rel
Hum
%
Delta-T
°C
Wind Press
QNH
hPa
Press
MSL
hPa
Rain
since 9 am
mm
Dir
 
Spd
km/h
Gust
km/h
Spd
kts
Gust
kts
26/11:30pm 3.2 -0.1 2.3 94 0.4 NW 9 11 5 6 996.7 - 0.0
26/11:00pm 3.6 -0.4 2.7 94 0.4 NNW 13 17 7 9 997.0 - 0.0
26/10:30pm 3.7 -1.1 2.8 94 0.4 N 17 22 9 12 997.0 - 0.0
26/10:00pm 3.5 -0.9 2.6 94 0.4 N 15 17 8 9 997.1 - 0.0
26/09:30pm 3.5 0.2 2.6 94 0.4 NNW 9 11 5 6 997.1 - 0.0
26/09:00pm 3.5 0.2 2.6 94 0.4 WNW 9 11 5 6 997.2 997.5 0.0
26/08:30pm 3.7 -0.6 3.0 95 0.3 N 15 19 8 10 997.0 - 0.0
26/08:00pm 3.7 0.9 3.0 95 0.3 WNW 7 11 4 6 996.9 - 0.0
26/07:30pm 3.7 1.4 3.0 95 0.3 W 4 9 2 5 996.8 - 0.0
26/07:00pm 3.7 0.1 3.0 95 0.3 NNW 11 15 6 8 996.8 - 0.0
26/06:30pm 3.8 -1.9 3.1 95 0.3 N 22 28 12 15 996.8 - 0.0
26/06:00pm 3.6 0.4 2.9 95 0.3 WNW 9 11 5 6 996.8 997.1 0.0
26/05:30pm 3.6 0.4 2.9 95 0.3 NW 9 13 5 7 996.5 - 0.0
26/05:00pm 3.6 0.4 2.9 95 0.3 NNW 9 11 5 6 996.4 - 0.0
26/04:30pm 3.6 0.4 2.9 95 0.3 NNW 9 11 5 6 996.2 - 0.0
26/04:00pm 3.4 0.1 2.7 95 0.3 NW 9 11 5 6 996.1 - 0.0
26/03:30pm 3.5 0.3 2.8 95 0.3 NW 9 13 5 7 996.0 - 0.0
26/03:00pm 3.5 -0.1 2.8 95 0.3 NW 11 13 6 7 995.9 996.2 0.0
26/02:30pm 3.8 -0.2 2.9 94 0.4 NW 13 15 7 8 995.8 - 0.0
26/02:00pm 3.7 -1.4 2.8 94 0.4 NNW 19 20 10 11 995.8 - 0.0
26/01:30pm 3.6 -1.6 2.7 94 0.4 NW 19 20 10 11 995.7 - 0.0
26/01:00pm 4.1 0.5 3.1 93 0.4 NW 11 13 6 7 995.8 - 0.0
26/12:30pm 4.4 -0.3 3.4 93 0.4 NNW 17 19 9 10 995.6 - 0.0
26/12:00pm 4.5 -0.7 3.5 93 0.4 NNW 20 22 11 12 995.7 996.0 0.0
26/11:30am 4.4 -1.6 3.4 93 0.4 NW 24 28 13 15 995.9 - 0.0
26/11:00am 4.1 -2.3 3.2 94 0.4 NNW 26 28 14 15 996.3 - 0.0
26/10:30am 3.9 -2.9 3.0 94 0.4 NNW 28 32 15 17 996.5 - 0.0
26/10:00am 4.1 -3.1 3.2 94 0.4 NNW 30 33 16 18 996.8 - 0.0
26/09:30am 3.8 -3.0 2.9 94 0.4 NNW 28 32 15 17 996.7 - 0.0
26/09:00am 3.8 -3.8 2.9 94 0.4 NNW 32 37 17 20 996.7 997.0 0.6
26/08:30am 3.6 -4.0 2.7 94 0.4 NNW 32 37 17 20 996.8 - 0.4
26/08:00am 3.6 -4.0 2.7 94 0.4 NNW 32 33 17 18 997.0 - 0.4
26/07:30am 3.5 -4.2 2.5 93 0.4 NNW 32 37 17 20 996.8 - 0.4
26/07:00am 3.5 -3.4 2.5 93 0.4 NNW 28 32 15 17 996.7 - 0.4
26/06:30am 3.4 -3.6 2.2 92 0.5 NNW 28 32 15 17 996.6 - 0.4
26/06:00am 3.3 -3.3 2.1 92 0.5 NNW 26 28 14 15 996.5 996.8 0.4
26/05:30am 3.1 -3.5 1.9 92 0.5 NNW 26 30 14 16 996.4 - 0.4
26/05:00am 3.1 -3.5 1.9 92 0.5 NNW 26 30 14 16 996.4 - 0.4
26/04:30am 3.0 -4.0 1.7 91 0.5 NNW 28 32 15 17 996.2 - 0.4
26/04:00am 3.1 -3.9 1.9 92 0.5 NNW 28 32 15 17 996.4 - 0.4
26/03:30am 3.0 -4.0 1.7 91 0.5 NNW 28 32 15 17 996.2 - 0.4
26/03:00am 3.0 -4.0 1.7 91 0.5 NNW 28 32 15 17 996.3 996.6 0.4
26/02:30am 3.0 -3.3 1.7 91 0.5 NNW 24 26 13 14 996.5 - 0.4
26/02:00am 2.9 -3.4 1.4 90 0.6 NW 24 28 13 15 996.5 - 0.4
26/01:30am 2.9 -3.4 1.3 89 0.6 NW 24 28 13 15 996.5 - 0.4
26/01:00am 3.1 -3.2 1.3 88 0.7 NW 24 30 13 16 996.4 - 0.4
26/12:30am 3.2 -3.5 1.4 88 0.7 NW 26 30 14 16 996.3 - 0.4
26/12:00am 3.2 -3.9 1.3 87 0.7 NW 28 32 15 17 996.6 996.9 0.4
 
Date/Time
EST
Temp
°C
App
Temp
°C
Dew
Point
Rel
Hum
%
Delta-T
°C
Wind Press
QNH
hPa
Press
MSL
hPa
Rain
since 9 am
mm
Dir
 
Spd
km/h
Gust
km/h
Spd
kts
Gust
kts
25/11:30pm 3.3 -3.1 1.2 86 0.8 NW 24 30 13 16 996.6 - 0.4
25/11:00pm 3.4 -3.4 1.1 85 0.9 NW 26 32 14 17 996.7 - 0.4
25/10:30pm 3.4 -3.7 1.1 85 0.9 NW 28 32 15 17 996.5 - 0.4
25/10:00pm 3.6 -4.0 0.8 82 1.1 NW 30 39 16 21 996.6 - 0.4
25/09:30pm 3.5 -2.5 1.2 85 0.9 NW 22 30 12 16 996.7 - 0.4
25/09:00pm 3.5 -4.0 0.9 83 1.0 NW 30 35 16 19 996.5 996.8 0.4
25/08:30pm 3.5 -3.6 1.1 84 0.9 NW 28 35 15 19 996.2 - 0.4
25/08:00pm 3.7 -4.3 0.6 80 1.2 NW 32 41 17 22 995.6 - 0.4
25/07:30pm 3.5 -4.4 1.1 84 0.9 NW 32 33 17 18 995.5 - 0.4
25/07:00pm 3.5 -3.5 1.7 88 0.7 NW 28 32 15 17 995.1 - 0.4
25/06:30pm 3.4 -3.7 1.6 88 0.7 NW 28 33 15 18 994.8 - 0.4
25/06:00pm 3.4 -4.1 1.4 87 0.8 WNW 30 35 16 19 994.4 994.7 0.4
25/05:30pm 3.5 -4.6 1.2 85 0.9 WNW 33 39 18 21 993.8 - 0.4
25/05:00pm 3.3 -5.1 1.5 88 0.7 WNW 35 43 19 23 993.3 - 0.4
25/04:30pm 3.4 -5.0 1.8 89 0.6 WNW 35 43 19 23 992.6 - 0.4
25/04:00pm 3.5 -5.2 2.2 91 0.5 WNW 37 50 20 27 992.2 - 0.4
25/03:30pm 3.9 -6.5 2.3 89 0.6 WNW 46 59 25 32 991.4 - 0.4
25/03:24pm 4.0 -5.0 2.5 90 0.6 WNW 39 57 21 31 991.2 - 0.4
25/03:00pm 4.4 -5.3 2.9 90 0.6 NW 43 50 23 27 990.4 990.7 0.4
25/02:30pm 4.6 -5.1 2.9 89 0.7 NW 43 50 23 27 989.6 - 0.4
25/02:00pm 4.6 -5.1 3.1 90 0.6 NW 43 50 23 27 989.1 - 0.4
25/01:30pm 4.7 -5.8 3.4 91 0.5 NW 48 57 26 31 988.7 - 0.4

Other Formats:

Comma delimited format used in spreadsheet applications
http://www.bom.gov.au/fwo/IDT60803/IDT60803.94998.axf

JavaScript Object Notation format (JSON) in row-major order
http://www.bom.gov.au/fwo/IDT60803/IDT60803.94998.json